Time;durP1;ratioP1;P1;durP2;ratioP2;P2;SDS_P1;SDS_P2;PMS_P1;PMS_P2;Temp;Humidity;BMP_temperature;BMP_pressure;BME280_temperature;BME280_humidity;BME280_pressure;Samples;Min_cycle;Max_cycle;Signal;HPM_P1;HPM_P2
2024/01/07 00:00:00;;;;;;;11.98;9.50;;;0.20;99.90;;;;;;5081400;28;20044;-65
2024/01/07 00:02:26;;;;;;;10.88;9.30;;;0.20;99.90;;;;;;5080508;28;20560;-65
2024/01/07 00:04:51;;;;;;;12.10;9.70;;;0.20;99.90;;;;;;5084240;28;20042;-64
2024/01/07 00:07:17;;;;;;;13.82;9.77;;;0.20;99.90;;;;;;5080504;28;20402;-64
2024/01/07 00:09:43;;;;;;;12.18;10.00;;;0.20;99.90;;;;;;5080099;28;20182;-65
2024/01/07 00:12:08;;;;;;;10.77;9.55;;;0.20;99.90;;;;;;5088021;28;20489;-64
2024/01/07 00:14:34;;;;;;;14.07;11.38;;;0.20;99.90;;;;;;5079436;28;20040;-65
2024/01/07 00:16:59;;;;;;;12.25;10.05;;;0.20;99.90;;;;;;5081933;28;20039;-65
2024/01/07 00:19:25;;;;;;;13.20;10.43;;;0.20;99.90;;;;;;5085465;28;20039;-64
2024/01/07 00:21:51;;;;;;;13.85;9.57;;;0.20;99.90;;;;;;5080726;28;20032;-65
2024/01/07 00:24:16;;;;;;;11.43;9.88;;;0.20;99.90;;;;;;5081467;28;20077;-65
2024/01/07 00:26:42;;;;;;;13.25;10.38;;;0.20;99.90;;;;;;5081893;28;20132;-65
2024/01/07 00:29:07;;;;;;;13.77;11.70;;;0.20;99.90;;;;;;5085958;28;20089;-65
2024/01/07 00:31:33;;;;;;;12.70;10.40;;;0.30;99.90;;;;;;5080662;28;20040;-65
2024/01/07 00:33:59;;;;;;;14.25;11.00;;;0.20;99.90;;;;;;5080361;28;20044;-64
2024/01/07 00:36:24;;;;;;;13.48;10.38;;;0.20;99.90;;;;;;5084604;28;20048;-64
2024/01/07 00:38:50;;;;;;;15.38;10.65;;;0.20;99.90;;;;;;5081914;28;20043;-65
2024/01/07 00:41:15;;;;;;;13.65;11.25;;;0.20;99.90;;;;;;5068416;28;20048;-64
2024/01/07 00:43:41;;;;;;;15.00;10.68;;;0.20;99.90;;;;;;5080082;28;20147;-64
2024/01/07 00:46:07;;;;;;;13.13;11.00;;;0.20;99.90;;;;;;5084885;28;20051;-65
2024/01/07 00:48:32;;;;;;;13.18;10.60;;;0.20;99.90;;;;;;5088320;28;20070;-64
2024/01/07 00:50:58;;;;;;;16.58;12.13;;;0.10;99.90;;;;;;5082289;28;20044;-64
2024/01/07 00:53:24;;;;;;;14.90;11.30;;;0.10;99.90;;;;;;5080989;28;20098;-64
2024/01/07 00:55:49;;;;;;;13.20;11.10;;;0.20;99.90;;;;;;5075397;28;20043;-64
2024/01/07 00:58:15;;;;;;;13.93;11.73;;;0.20;99.90;;;;;;5086936;28;20474;-64
2024/01/07 01:00:40;;;;;;;15.30;11.55;;;0.20;99.90;;;;;;5064029;28;20087;-64
2024/01/07 01:03:06;;;;;;;15.82;12.02;;;0.20;99.90;;;;;;5061924;28;20453;-64
2024/01/07 01:05:32;;;;;;;14.30;10.80;;;0.20;99.90;;;;;;5083058;28;20075;-64
2024/01/07 01:07:57;;;;;;;12.68;10.15;;;0.20;99.90;;;;;;5080679;28;20047;-65
2024/01/07 01:10:23;;;;;;;12.75;11.13;;;0.20;99.90;;;;;;5083267;28;20040;-64
2024/01/07 01:12:48;;;;;;;13.07;11.23;;;0.10;99.90;;;;;;5079717;28;20043;-65
2024/01/07 01:15:16;;;;;;;15.32;10.77;;;0.20;99.90;;;;;;5083034;28;20071;-64
2024/01/07 01:17:42;;;;;;;12.82;11.13;;;0.20;99.90;;;;;;5082504;28;20044;-64
2024/01/07 01:20:08;;;;;;;13.60;10.32;;;0.20;99.90;;;;;;5081758;28;20047;-65
2024/01/07 01:22:34;;;;;;;13.90;10.30;;;0.20;99.90;;;;;;5082861;28;20128;-65
2024/01/07 01:24:59;;;;;;;11.85;9.77;;;0.30;99.90;;;;;;5081916;28;20032;-64
2024/01/07 01:27:25;;;;;;;9.88;8.60;;;0.20;99.90;;;;;;5084784;28;20063;-65
2024/01/07 01:29:51;;;;;;;10.90;9.13;;;0.20;99.90;;;;;;5083197;28;20036;-64
2024/01/07 01:32:16;;;;;;;12.00;9.55;;;0.30;99.90;;;;;;5083143;28;20045;-65
2024/01/07 01:34:42;;;;;;;13.25;9.23;;;0.20;99.90;;;;;;5082065;28;20032;-65
2024/01/07 01:37:11;;;;;;;15.05;9.75;;;0.30;99.90;;;;;;5079085;28;20543;-64
2024/01/07 01:39:40;;;;;;;10.93;9.00;;;0.20;99.90;;;;;;5085567;28;20087;-64
2024/01/07 01:42:07;;;;;;;10.95;9.23;;;0.30;99.90;;;;;;5077968;28;20048;-64
2024/01/07 01:44:33;;;;;;;10.45;7.70;;;0.30;99.90;;;;;;5079597;28;20048;-64
2024/01/07 01:47:00;;;;;;;9.82;8.15;;;0.30;99.90;;;;;;5080975;28;20051;-64
2024/01/07 01:49:27;;;;;;;10.85;9.02;;;0.30;99.90;;;;;;5079820;28;20455;-65
2024/01/07 01:51:53;;;;;;;9.00;7.00;;;0.30;99.90;;;;;;5083597;28;20508;-64
2024/01/07 01:54:20;;;;;;;11.93;7.47;;;0.30;99.90;;;;;;5077406;28;20035;-65
2024/01/07 01:56:47;;;;;;;12.00;7.95;;;0.20;99.90;;;;;;5110573;27;20529;-64
2024/01/07 01:59:14;;;;;;;12.98;8.52;;;0.30;99.90;;;;;;5097259;27;20040;-65
2024/01/07 02:01:40;;;;;;;9.73;8.02;;;0.30;99.90;;;;;;5063875;28;20048;-64
2024/01/07 02:04:06;;;;;;;9.88;7.80;;;0.30;99.90;;;;;;5087950;28;20031;-64
2024/01/07 02:06:32;;;;;;;11.05;8.07;;;0.30;99.90;;;;;;5076603;28;20504;-64
2024/01/07 02:08:58;;;;;;;9.60;8.07;;;0.30;99.90;;;;;;5081836;28;20043;-64
2024/01/07 02:11:23;;;;;;;9.95;7.55;;;0.30;99.90;;;;;;5078676;28;20040;-64
2024/01/07 02:13:49;;;;;;;10.38;8.68;;;0.30;99.90;;;;;;5085176;28;20051;-65
2024/01/07 02:16:15;;;;;;;10.80;7.97;;;0.20;99.90;;;;;;5079338;28;20466;-64
2024/01/07 02:18:43;;;;;;;9.63;7.35;;;0.30;99.90;;;;;;5078432;28;20040;-64
2024/01/07 02:21:10;;;;;;;11.05;7.82;;;0.20;99.90;;;;;;5086792;28;20058;-65
2024/01/07 02:23:35;;;;;;;9.27;7.55;;;0.30;99.90;;;;;;5108516;27;20040;-64
2024/01/07 02:26:01;;;;;;;8.57;6.97;;;0.30;99.90;;;;;;5080520;28;20043;-64
2024/01/07 02:28:27;;;;;;;9.25;7.38;;;0.30;99.90;;;;;;5082351;28;20517;-64
2024/01/07 02:30:52;;;;;;;9.80;7.05;;;0.30;99.90;;;;;;5078156;28;20041;-64
2024/01/07 02:33:18;;;;;;;9.98;7.07;;;0.20;99.90;;;;;;5084079;28;20509;-64
2024/01/07 02:35:43;;;;;;;10.55;7.47;;;0.20;99.90;;;;;;5108362;27;20383;-64
2024/01/07 02:38:09;;;;;;;8.25;6.55;;;0.20;99.90;;;;;;5081826;28;20032;-64
2024/01/07 02:40:35;;;;;;;8.90;6.65;;;0.20;99.90;;;;;;5076217;28;20063;-64
2024/01/07 02:43:00;;;;;;;7.22;6.10;;;0.20;99.90;;;;;;5112379;27;20051;-64
2024/01/07 02:45:26;;;;;;;8.32;6.03;;;0.20;99.90;;;;;;5082127;28;20044;-65
2024/01/07 02:47:51;;;;;;;7.97;6.45;;;0.20;99.90;;;;;;5097089;28;20050;-64
2024/01/07 02:50:17;;;;;;;7.70;5.57;;;0.20;99.90;;;;;;5082305;28;20123;-64
2024/01/07 02:52:43;;;;;;;6.57;5.43;;;0.20;99.90;;;;;;5076959;28;20485;-64
2024/01/07 02:55:09;;;;;;;7.30;5.20;;;0.20;99.90;;;;;;5079404;28;20055;-64
2024/01/07 02:57:34;;;;;;;7.28;5.45;;;0.70;99.90;;;;;;5080474;28;20473;-64
2024/01/07 03:00:00;;;;;;;6.22;4.82;;;0.20;99.90;;;;;;5083507;28;20047;-64
2024/01/07 03:02:26;;;;;;;7.78;5.38;;;0.20;99.90;;;;;;5083550;28;20119;-65
2024/01/07 03:04:51;;;;;;;7.43;5.15;;;0.20;99.90;;;;;;5081419;28;20060;-64
2024/01/07 03:07:17;;;;;;;7.65;4.90;;;0.10;99.90;;;;;;5085126;28;20051;-64
2024/01/07 03:09:43;;;;;;;7.07;4.85;;;0.10;99.90;;;;;;5088932;28;20553;-64
2024/01/07 03:12:08;;;;;;;6.00;4.35;;;0.10;99.90;;;;;;5082835;28;20436;-64
2024/01/07 03:14:34;;;;;;;6.05;4.47;;;0.00;99.90;;;;;;5084573;28;20493;-64
2024/01/07 03:16:59;;;;;;;6.38;4.40;;;0.00;99.90;;;;;;5066743;28;20041;-64
2024/01/07 03:19:25;;;;;;;5.07;4.15;;;0.10;99.90;;;;;;5087225;28;20473;-64
2024/01/07 03:21:50;;;;;;;7.97;4.07;;;0.10;99.90;;;;;;5115512;27;20039;-64
2024/01/07 03:24:16;;;;;;;5.40;4.20;;;0.00;99.90;;;;;;5086018;28;20056;-65
2024/01/07 03:26:42;;;;;;;5.63;4.32;;;0.00;99.90;;;;;;5085387;28;20040;-64
2024/01/07 03:29:07;;;;;;;5.07;4.57;;;0.00;99.90;;;;;;5084669;28;20032;-64
2024/01/07 03:31:33;;;;;;;6.43;4.07;;;0.00;99.90;;;;;;5087161;28;20044;-64
2024/01/07 03:33:58;;;;;;;5.03;4.25;;;-0.10;99.90;;;;;;5080490;28;20039;-65
2024/01/07 03:36:24;;;;;;;6.43;4.75;;;-0.10;99.90;;;;;;5080412;28;20051;-65
2024/01/07 03:38:50;;;;;;;6.05;3.85;;;-0.10;99.90;;;;;;5098280;27;20035;-65
2024/01/07 03:41:19;;;;;;;6.97;4.15;;;-0.10;99.90;;;;;;5082337;28;20503;-65
2024/01/07 03:43:46;;;;;;;5.10;3.90;;;0.00;99.90;;;;;;5087689;28;20543;-65
2024/01/07 03:46:12;;;;;;;7.63;4.57;;;0.00;99.90;;;;;;5082319;28;20044;-64
2024/01/07 03:48:38;;;;;;;6.50;4.60;;;0.00;99.90;;;;;;5087008;28;20288;-65
2024/01/07 03:51:03;;;;;;;5.63;4.20;;;0.00;99.90;;;;;;5079401;28;20075;-65
2024/01/07 03:53:29;;;;;;;6.28;4.47;;;0.00;99.90;;;;;;5079067;28;20150;-65
2024/01/07 03:55:55;;;;;;;6.75;4.05;;;0.10;99.90;;;;;;5087377;28;20154;-65
2024/01/07 03:58:20;;;;;;;6.03;4.32;;;0.00;99.90;;;;;;5084000;28;20037;-65
2024/01/07 04:00:46;;;;;;;6.30;4.47;;;0.00;99.90;;;;;;5089014;28;20047;-65
2024/01/07 04:03:11;;;;;;;5.03;4.05;;;0.00;99.90;;;;;;5082293;28;20051;-64
2024/01/07 04:05:37;;;;;;;5.35;4.20;;;0.00;99.90;;;;;;5083562;28;20043;-64
2024/01/07 04:08:03;;;;;;;6.82;3.88;;;0.10;99.90;;;;;;5080832;28;20509;-64
2024/01/07 04:10:29;;;;;;;7.20;4.13;;;0.10;99.90;;;;;;5080874;28;20040;-65
2024/01/07 04:12:55;;;;;;;5.78;3.85;;;0.00;99.90;;;;;;5084001;28;20046;-65
2024/01/07 04:15:20;;;;;;;7.28;3.80;;;0.00;99.90;;;;;;5083352;28;20044;-65
2024/01/07 04:17:46;;;;;;;6.15;3.80;;;0.00;99.90;;;;;;5083102;28;20041;-64
2024/01/07 04:20:15;;;;;;;5.43;3.75;;;0.00;99.90;;;;;;5077080;28;20517;-64
2024/01/07 04:22:46;;;;;;;5.43;4.13;;;0.00;99.90;;;;;;5079471;28;20139;-64
2024/01/07 04:25:12;;;;;;;5.00;3.40;;;0.00;99.90;;;;;;5081245;28;20045;-64
2024/01/07 04:27:38;;;;;;;4.35;3.38;;;0.00;99.90;;;;;;5080355;28;20474;-64
2024/01/07 04:30:05;;;;;;;4.97;3.83;;;0.00;99.90;;;;;;5088341;28;20059;-64
2024/01/07 04:32:31;;;;;;;5.18;3.20;;;0.00;99.90;;;;;;5080137;28;20054;-65
2024/01/07 04:34:57;;;;;;;6.28;3.78;;;-0.10;99.90;;;;;;5081419;28;20064;-65
2024/01/07 04:37:23;;;;;;;5.53;3.40;;;-0.10;99.90;;;;;;5084095;28;20051;-65
2024/01/07 04:39:49;;;;;;;6.95;3.60;;;-0.10;99.90;;;;;;5080550;28;20040;-64
2024/01/07 04:42:16;;;;;;;4.05;2.65;;;-0.10;99.90;;;;;;5082436;28;20085;-64
2024/01/07 04:44:42;;;;;;;3.03;2.70;;;-0.10;99.90;;;;;;5077551;28;20037;-64
2024/01/07 04:47:23;;;;;;;6.10;3.47;;;-0.10;99.90;;;;;;5082564;28;20437;-65
2024/01/07 04:49:49;;;;;;;4.32;3.13;;;-0.10;99.90;;;;;;5081985;28;20060;-64
2024/01/07 04:52:15;;;;;;;5.68;2.95;;;0.00;99.90;;;;;;5080839;28;20489;-64
2024/01/07 04:54:40;;;;;;;5.68;2.90;;;-0.10;99.90;;;;;;5084722;28;20040;-65
2024/01/07 04:57:06;;;;;;;5.28;3.10;;;-0.10;99.90;;;;;;5077213;28;20504;-65
2024/01/07 04:59:31;;;;;;;4.55;3.25;;;-0.10;99.90;;;;;;5112402;27;20133;-64
2024/01/07 05:01:57;;;;;;;5.30;3.38;;;-0.10;99.90;;;;;;5109808;27;20040;-64
2024/01/07 05:04:22;;;;;;;4.93;3.45;;;-0.10;99.90;;;;;;5078483;28;20044;-64
2024/01/07 05:06:48;;;;;;;4.43;3.10;;;-0.10;99.90;;;;;;5112063;27;20481;-64
2024/01/07 05:09:14;;;;;;;3.63;2.55;;;-0.10;99.90;;;;;;5078110;28;20046;-64
2024/01/07 05:11:40;;;;;;;6.78;3.58;;;-0.10;99.90;;;;;;5080249;28;20044;-65
2024/01/07 05:14:05;;;;;;;5.03;3.03;;;-0.10;99.90;;;;;;5078491;28;20059;-64
2024/01/07 05:16:31;;;;;;;4.95;3.33;;;-0.10;99.90;;;;;;5075816;28;20040;-64
2024/01/07 05:18:57;;;;;;;4.03;3.03;;;-0.10;99.90;;;;;;5076929;28;20178;-64
2024/01/07 05:21:23;;;;;;;4.00;2.45;;;-0.10;99.90;;;;;;5080586;28;20043;-65
2024/01/07 05:23:48;;;;;;;6.63;2.83;;;0.00;99.90;;;;;;5080491;28;20492;-64
2024/01/07 05:26:14;;;;;;;3.90;2.70;;;-0.10;99.90;;;;;;5078381;28;20451;-65
2024/01/07 05:28:39;;;;;;;2.95;2.35;;;-0.10;99.90;;;;;;5082070;28;20039;-64
2024/01/07 05:31:13;;;;;;;3.85;2.60;;;-0.10;99.90;;;;;;5071013;28;20091;-65
2024/01/07 05:33:39;;;;;;;3.92;2.35;;;-0.10;99.90;;;;;;5077451;28;20040;-65
2024/01/07 05:36:05;;;;;;;3.13;2.05;;;-0.10;99.90;;;;;;5080437;28;20170;-64
2024/01/07 05:38:30;;;;;;;6.15;2.03;;;0.00;99.90;;;;;;5075600;28;20067;-64
2024/01/07 05:40:56;;;;;;;2.97;1.60;;;0.00;99.90;;;;;;5113515;27;20037;-64
2024/01/07 05:43:21;;;;;;;5.43;2.20;;;0.00;99.90;;;;;;5076135;28;20048;-64
2024/01/07 05:45:47;;;;;;;2.30;1.35;;;0.00;99.90;;;;;;5076601;28;20044;-65
2024/01/07 05:48:13;;;;;;;2.15;1.30;;;0.00;99.90;;;;;;5079422;28;20032;-64
2024/01/07 05:50:38;;;;;;;2.08;1.50;;;0.00;99.90;;;;;;5078268;28;21997;-65
2024/01/07 05:53:04;;;;;;;5.35;1.45;;;-0.10;99.90;;;;;;5079005;28;20036;-64
2024/01/07 05:55:29;;;;;;;1.95;1.30;;;0.00;99.90;;;;;;5079995;28;20074;-64
2024/01/07 05:57:55;;;;;;;2.88;1.13;;;0.00;99.90;;;;;;5082572;28;20071;-64
2024/01/07 06:00:21;;;;;;;1.98;1.10;;;-0.10;99.90;;;;;;5077778;28;20517;-64
2024/01/07 06:02:46;;;;;;;2.15;1.10;;;0.00;99.90;;;;;;5111081;27;20040;-65
2024/01/07 06:05:12;;;;;;;1.75;1.08;;;0.00;99.90;;;;;;5078789;28;20048;-64
2024/01/07 06:07:38;;;;;;;4.57;1.15;;;-0.10;99.90;;;;;;5079807;28;20119;-65
2024/01/07 06:10:03;;;;;;;1.50;1.00;;;-0.10;99.90;;;;;;5078974;28;20036;-64
2024/01/07 06:12:29;;;;;;;2.22;1.00;;;0.00;99.90;;;;;;5075296;28;20398;-64
2024/01/07 06:14:55;;;;;;;2.67;1.33;;;-0.10;99.90;;;;;;5068061;28;20037;-64
2024/01/07 06:17:20;;;;;;;1.60;0.80;;;-0.10;99.90;;;;;;5076750;28;20494;-64
2024/01/07 06:19:46;;;;;;;3.35;1.23;;;-0.10;99.90;;;;;;5078460;28;20039;-64
2024/01/07 06:22:11;;;;;;;3.92;1.42;;;-0.10;99.90;;;;;;5078495;28;20115;-64
2024/01/07 06:24:37;;;;;;;2.63;1.10;;;-0.10;99.90;;;;;;5079790;28;20070;-64
2024/01/07 06:27:04;;;;;;;2.72;0.77;;;-0.10;99.90;;;;;;5083392;28;20126;-64
2024/01/07 06:29:29;;;;;;;2.80;1.60;;;-0.10;99.90;;;;;;5079181;28;20036;-64
2024/01/07 06:31:55;;;;;;;1.40;0.75;;;-0.10;99.90;;;;;;5113143;27;20055;-64
2024/01/07 06:34:21;;;;;;;1.63;0.80;;;-0.10;99.90;;;;;;5074671;28;20051;-64
2024/01/07 06:36:46;;;;;;;3.70;0.77;;;-0.10;99.90;;;;;;5077970;28;20468;-64
2024/01/07 06:39:12;;;;;;;2.85;1.02;;;-0.10;99.90;;;;;;5080232;28;20044;-64
2024/01/07 06:41:38;;;;;;;2.67;1.10;;;0.00;99.90;;;;;;5080027;28;20066;-64
2024/01/07 06:44:04;;;;;;;3.38;0.88;;;-0.10;99.90;;;;;;5081129;28;20051;-64
2024/01/07 06:46:29;;;;;;;2.70;0.63;;;-0.10;99.90;;;;;;5075844;28;20069;-64
2024/01/07 06:48:55;;;;;;;1.10;0.68;;;-0.10;99.90;;;;;;5110063;27;20391;-64
2024/01/07 06:51:21;;;;;;;2.58;0.80;;;0.00;99.90;;;;;;5080646;28;20090;-64
2024/01/07 06:53:46;;;;;;;3.33;0.68;;;-1.00;99.90;;;;;;5081416;28;20040;-64
2024/01/07 06:56:13;;;;;;;2.40;0.68;;;0.00;99.90;;;;;;5081530;28;20482;-65
2024/01/07 06:58:39;;;;;;;1.83;0.70;;;0.00;99.90;;;;;;5076794;28;20086;-64
2024/01/07 07:01:07;;;;;;;2.25;0.80;;;-0.10;99.90;;;;;;5077244;28;20048;-64
2024/01/07 07:03:33;;;;;;;2.38;0.80;;;0.00;99.90;;;;;;5072217;28;20044;-64
2024/01/07 07:05:58;;;;;;;1.40;0.88;;;0.00;99.90;;;;;;5072624;28;20102;-64
2024/01/07 07:08:24;;;;;;;1.30;0.80;;;0.00;99.90;;;;;;5075613;28;20044;-64
2024/01/07 07:10:49;;;;;;;1.48;0.70;;;0.00;99.90;;;;;;5075620;28;20040;-64
2024/01/07 07:13:15;;;;;;;2.00;0.95;;;0.00;99.90;;;;;;5074869;28;20076;-64
2024/01/07 07:15:41;;;;;;;2.65;1.45;;;0.00;99.90;;;;;;5069590;28;20074;-64
2024/01/07 07:18:06;;;;;;;2.88;0.82;;;0.00;99.90;;;;;;5072651;28;20040;-64
2024/01/07 07:20:32;;;;;;;2.75;0.77;;;0.00;99.90;;;;;;5073821;28;20044;-64
2024/01/07 07:22:57;;;;;;;2.13;1.10;;;0.00;99.90;;;;;;5068726;28;20054;-64
2024/01/07 07:25:23;;;;;;;3.17;0.77;;;0.00;99.90;;;;;;5073962;28;20067;-65
2024/01/07 07:27:48;;;;;;;1.55;0.80;;;0.00;99.90;;;;;;5069107;28;20047;-64
2024/01/07 07:30:14;;;;;;;1.98;0.80;;;0.00;99.90;;;;;;5069105;28;20072;-64
2024/01/07 07:32:41;;;;;;;2.08;0.80;;;0.00;99.90;;;;;;5068045;28;20032;-64
2024/01/07 07:35:07;;;;;;;3.17;0.90;;;0.00;99.90;;;;;;5069701;28;20128;-64
2024/01/07 07:37:33;;;;;;;1.90;0.63;;;0.00;99.90;;;;;;5071107;28;20044;-64
2024/01/07 07:39:58;;;;;;;2.40;1.00;;;0.00;99.90;;;;;;5099447;27;20048;-64
2024/01/07 07:42:24;;;;;;;2.63;0.93;;;0.00;99.90;;;;;;5070726;28;20750;-64
2024/01/07 07:44:50;;;;;;;2.38;0.50;;;0.10;99.90;;;;;;5072467;28;20040;-64
2024/01/07 07:47:15;;;;;;;1.88;0.70;;;0.00;99.90;;;;;;5076473;28;20040;-64
2024/01/07 07:49:41;;;;;;;3.40;0.57;;;0.00;99.90;;;;;;5076603;28;20044;-64
2024/01/07 07:52:08;;;;;;;2.05;0.60;;;0.00;99.90;;;;;;5079158;28;20471;-64
2024/01/07 07:54:34;;;;;;;1.52;0.70;;;0.00;99.90;;;;;;5107842;27;20051;-64
2024/01/07 07:56:59;;;;;;;2.47;0.75;;;0.00;99.90;;;;;;5077730;28;20121;-64
2024/01/07 07:59:25;;;;;;;1.30;0.68;;;0.00;99.90;;;;;;5078895;28;20474;-64
2024/01/07 08:01:51;;;;;;;0.90;0.52;;;0.00;99.90;;;;;;5080998;28;20039;-64
2024/01/07 08:04:16;;;;;;;2.25;0.52;;;0.00;99.90;;;;;;5077702;28;20101;-64
2024/01/07 08:06:51;;;;;;;1.95;0.60;;;-0.10;99.90;;;;;;5082164;28;20036;-64
2024/01/07 08:09:16;;;;;;;1.20;0.50;;;-0.10;99.90;;;;;;5076048;28;20086;-65
2024/01/07 08:11:42;;;;;;;1.40;0.45;;;-0.10;99.90;;;;;;5075680;28;20405;-64
2024/01/07 08:14:09;;;;;;;2.08;0.55;;;-0.20;99.90;;;;;;5079453;28;20040;-64
2024/01/07 08:16:34;;;;;;;1.30;0.47;;;-0.20;99.90;;;;;;5080920;28;20464;-64
2024/01/07 08:19:00;;;;;;;1.50;0.40;;;-0.30;99.90;;;;;;5077127;28;20131;-64
2024/01/07 08:21:25;;;;;;;0.88;0.55;;;-0.20;99.90;;;;;;5074272;28;20389;-64
2024/01/07 08:23:51;;;;;;;2.58;0.60;;;-0.30;99.90;;;;;;5083765;28;20050;-64
2024/01/07 08:26:20;;;;;;;3.92;0.90;;;-0.30;99.90;;;;;;5078271;28;20383;-64
2024/01/07 08:28:45;;;;;;;3.60;0.47;;;-0.30;99.90;;;;;;5079011;28;20036;-64
2024/01/07 08:31:11;;;;;;;1.17;0.40;;;-0.30;99.90;;;;;;5076101;28;20051;-64
2024/01/07 08:33:37;;;;;;;0.93;0.30;;;-0.30;99.90;;;;;;5074244;28;20611;-64
2024/01/07 08:36:02;;;;;;;1.40;0.40;;;-0.40;99.90;;;;;;5076734;28;20086;-64
2024/01/07 08:38:28;;;;;;;1.80;0.52;;;-0.40;99.90;;;;;;5075056;28;20045;-64
2024/01/07 08:40:53;;;;;;;2.25;0.55;;;-0.40;99.90;;;;;;5075448;28;20059;-64
2024/01/07 08:43:19;;;;;;;2.20;1.02;;;-0.30;99.90;;;;;;5077168;28;20047;-64
2024/01/07 08:45:45;;;;;;;1.63;0.60;;;-0.40;99.90;;;;;;5082616;28;20042;-64
2024/01/07 08:48:12;;;;;;;1.13;0.55;;;-0.80;99.90;;;;;;5082218;28;20176;-64
2024/01/07 08:50:38;;;;;;;1.27;0.65;;;-0.40;99.90;;;;;;5078564;28;20118;-64
2024/01/07 08:53:03;;;;;;;1.75;0.40;;;-0.30;99.90;;;;;;5079512;28;20066;-65
2024/01/07 08:55:29;;;;;;;1.15;0.40;;;-0.40;99.90;;;;;;5083002;28;20046;-64
2024/01/07 08:57:54;;;;;;;2.55;0.68;;;-0.40;99.90;;;;;;5080082;28;20044;-64
2024/01/07 09:00:21;;;;;;;2.47;0.63;;;-0.40;99.90;;;;;;5076236;28;20048;-65
2024/01/07 09:02:47;;;;;;;1.05;0.40;;;-0.40;99.90;;;;;;5079370;28;20044;-64
2024/01/07 09:05:13;;;;;;;1.20;0.50;;;-0.40;99.90;;;;;;5078722;28;20050;-64
2024/01/07 09:07:39;;;;;;;3.30;0.90;;;-0.40;99.90;;;;;;5079271;28;20041;-65
2024/01/07 09:10:08;;;;;;;1.92;0.60;;;-0.40;99.90;;;;;;5077704;28;20039;-64
2024/01/07 09:12:34;;;;;;;1.95;0.60;;;-0.30;99.90;;;;;;5076630;28;20063;-64
2024/01/07 09:14:59;;;;;;;1.55;0.80;;;-0.30;99.90;;;;;;5108112;27;20474;-64
2024/01/07 09:17:25;;;;;;;1.42;0.80;;;-0.20;99.90;;;;;;5077646;28;20090;-64
2024/01/07 09:19:50;;;;;;;2.75;0.63;;;-0.30;99.90;;;;;;5073785;28;20231;-64
2024/01/07 09:22:16;;;;;;;1.60;1.25;;;-0.20;99.90;;;;;;5078929;28;20046;-64
2024/01/07 09:24:42;;;;;;;0.77;0.50;;;-0.20;99.90;;;;;;5077301;28;20036;-65
2024/01/07 09:27:08;;;;;;;2.60;0.60;;;-0.10;99.90;;;;;;5079613;28;20080;-64
2024/01/07 09:29:34;;;;;;;2.90;0.40;;;-0.10;99.90;;;;;;5077026;28;20044;-64
2024/01/07 09:31:59;;;;;;;1.02;0.40;;;-0.10;99.90;;;;;;5078691;28;20472;-64
2024/01/07 09:34:25;;;;;;;1.73;0.40;;;0.00;99.90;;;;;;5077285;28;20031;-64
2024/01/07 09:36:50;;;;;;;3.53;0.60;;;0.00;99.90;;;;;;5075953;28;20044;-64
2024/01/07 09:39:16;;;;;;;0.52;0.30;;;0.00;99.90;;;;;;5080838;28;20032;-64
2024/01/07 09:41:42;;;;;;;2.25;0.60;;;0.10;99.90;;;;;;5076943;28;20482;-64
2024/01/07 09:44:08;;;;;;;1.05;0.47;;;0.20;99.90;;;;;;5074800;28;20052;-65
2024/01/07 09:46:37;;;;;;;1.70;0.70;;;0.20;99.90;;;;;;5076471;28;20055;-64
2024/01/07 09:49:03;;;;;;;0.77;0.30;;;0.30;99.90;;;;;;5077421;28;20113;-64
2024/01/07 09:51:30;;;;;;;1.50;0.30;;;0.30;99.90;;;;;;5080350;28;20474;-64
2024/01/07 09:54:01;;;;;;;1.52;0.70;;;0.40;99.90;;;;;;5079438;28;20895;-64
2024/01/07 09:56:33;;;;;;;0.55;0.25;;;0.40;99.90;;;;;;5082349;28;20036;-64
2024/01/07 09:58:59;;;;;;;1.58;0.30;;;0.40;99.90;;;;;;5076823;28;20119;-64
2024/01/07 10:01:25;;;;;;;1.23;0.40;;;0.50;99.90;;;;;;5076831;28;20512;-65
2024/01/07 10:03:51;;;;;;;0.80;0.32;;;0.50;99.90;;;;;;5077223;28;20495;-68
2024/01/07 10:06:20;;;;;;;1.70;0.55;;;0.70;99.90;;;;;;5079516;28;20067;-64
2024/01/07 10:08:46;;;;;;;1.50;0.50;;;0.70;99.90;;;;;;5081090;28;20493;-64
2024/01/07 10:11:14;;;;;;;3.63;0.50;;;0.60;99.90;;;;;;5060029;28;20044;-64
2024/01/07 10:13:39;;;;;;;2.40;0.50;;;0.60;99.90;;;;;;5075889;28;20513;-64
2024/01/07 10:16:08;;;;;;;1.85;0.40;;;0.60;99.90;;;;;;5076828;28;20134;-64
2024/01/07 10:18:34;;;;;;;3.35;1.40;;;0.60;99.90;;;;;;5074109;28;20040;-64
2024/01/07 10:21:03;;;;;;;1.30;0.47;;;0.50;99.90;;;;;;5076325;28;20044;-64
2024/01/07 10:23:29;;;;;;;2.75;0.40;;;0.50;99.90;;;;;;5077715;28;20035;-64
2024/01/07 10:25:56;;;;;;;2.90;0.57;;;0.50;99.90;;;;;;5081219;28;20062;-64
2024/01/07 10:28:22;;;;;;;1.77;0.40;;;0.50;99.90;;;;;;5073911;28;20485;-64
2024/01/07 10:30:52;;;;;;;0.57;0.22;;;0.50;99.90;;;;;;5074849;28;20054;-64
2024/01/07 10:33:22;;;;;;;1.30;0.50;;;0.50;99.90;;;;;;5079994;28;20068;-64
2024/01/07 10:36:06;;;;;;;1.38;0.40;;;0.60;99.90;;;;;;5079780;28;20047;-64
2024/01/07 10:38:33;;;;;;;3.50;0.50;;;0.50;99.90;;;;;;5085218;28;20032;-64
2024/01/07 10:41:00;;;;;;;1.25;0.25;;;0.50;99.90;;;;;;5079025;28;20039;-64
2024/01/07 10:43:29;;;;;;;2.35;0.50;;;0.60;99.90;;;;;;5075808;28;20036;-64
2024/01/07 10:45:55;;;;;;;1.02;0.38;;;0.60;99.90;;;;;;5082281;28;20032;-64
2024/01/07 10:48:23;;;;;;;3.40;0.68;;;0.60;99.90;;;;;;5074635;28;20094;-64
2024/01/07 10:50:53;;;;;;;2.15;0.63;;;0.60;99.90;;;;;;5077918;28;20040;-64
2024/01/07 10:53:21;;;;;;;1.90;0.63;;;0.60;99.90;;;;;;5079001;28;20119;-64
2024/01/07 10:55:57;;;;;;;2.70;0.50;;;0.60;99.90;;;;;;5078820;28;20651;-64
2024/01/07 10:58:24;;;;;;;2.58;0.60;;;0.70;99.90;;;;;;5082090;28;20442;-64
2024/01/07 11:00:50;;;;;;;2.65;0.40;;;0.70;99.90;;;;;;5081263;28;20046;-64
2024/01/07 11:03:24;;;;;;;3.88;0.55;;;0.70;99.90;;;;;;5110422;27;20482;-64
2024/01/07 11:06:15;;;;;;;1.75;0.50;;;0.70;99.90;;;;;;5078462;28;20041;-64
2024/01/07 11:09:06;;;;;;;3.53;0.60;;;0.80;99.90;;;;;;5078017;28;20482;-64
2024/01/07 11:11:38;;;;;;;1.98;0.57;;;0.70;99.90;;;;;;5067344;28;20040;-64
2024/01/07 11:14:04;;;;;;;1.48;0.50;;;0.70;99.90;;;;;;5075859;28;20039;-64
2024/01/07 11:16:39;;;;;;;5.38;0.90;;;0.70;99.90;;;;;;5111161;27;20074;-64
2024/01/07 11:19:04;;;;;;;2.00;0.55;;;0.80;99.90;;;;;;5076230;28;20118;-64
2024/01/07 11:21:30;;;;;;;1.05;0.40;;;0.90;99.90;;;;;;5076915;28;20048;-64
2024/01/07 11:23:56;;;;;;;2.28;0.50;;;0.90;99.90;;;;;;5082435;28;20399;-64
2024/01/07 11:26:22;;;;;;;1.55;0.43;;;0.90;99.90;;;;;;5083693;28;20131;-64
2024/01/07 11:28:57;;;;;;;1.77;0.52;;;1.00;99.90;;;;;;5115315;27;20062;-64
2024/01/07 11:31:38;;;;;;;1.73;0.30;;;1.10;99.90;;;;;;5084516;28;20465;-64
2024/01/07 11:34:04;;;;;;;0.98;0.60;;;1.20;99.90;;;;;;5082632;28;20444;-64
2024/01/07 11:36:29;;;;;;;4.07;0.80;;;1.30;99.90;;;;;;5118734;27;20039;-64
2024/01/07 11:38:55;;;;;;;2.08;1.00;;;1.30;99.90;;;;;;5082908;28;20127;-64
2024/01/07 11:41:21;;;;;;;1.85;0.40;;;1.30;99.90;;;;;;5086882;28;20047;-64
2024/01/07 11:43:59;;;;;;;1.13;0.47;;;1.50;99.90;;;;;;5081256;28;20039;-64
2024/01/07 11:46:26;;;;;;;1.33;0.40;;;1.60;99.90;;;;;;5080740;28;20047;-64
2024/01/07 11:48:58;;;;;;;2.30;0.65;;;1.60;99.90;;;;;;5085454;28;20044;-64
2024/01/07 11:51:28;;;;;;;3.75;0.50;;;1.60;99.90;;;;;;5076651;28;20051;-64
2024/01/07 11:53:54;;;;;;;3.42;0.70;;;1.70;99.90;;;;;;5082551;28;20093;-64
2024/01/07 11:56:20;;;;;;;1.90;0.50;;;1.70;99.90;;;;;;5081471;28;20044;-64
2024/01/07 11:58:46;;;;;;;4.38;0.50;;;1.70;99.90;;;;;;5084291;28;20036;-64
2024/01/07 12:01:14;;;;;;;2.10;0.50;;;1.70;99.90;;;;;;5079689;28;20043;-64
2024/01/07 12:03:41;;;;;;;1.30;0.70;;;1.70;99.90;;;;;;5077267;28;20123;-64
2024/01/07 12:06:07;;;;;;;3.08;0.88;;;1.70;99.90;;;;;;5101134;27;20047;-64
2024/01/07 12:08:32;;;;;;;1.65;0.70;;;1.80;99.90;;;;;;5079377;28;20493;-64
2024/01/07 12:10:59;;;;;;;2.38;1.33;;;1.80;99.90;;;;;;5076820;28;20055;-64
2024/01/07 12:13:25;;;;;;;4.97;0.93;;;1.90;99.90;;;;;;5080137;28;20039;-64
2024/01/07 12:15:51;;;;;;;3.60;0.95;;;1.80;99.90;;;;;;5078716;28;20043;-65
2024/01/07 12:18:17;;;;;;;1.95;0.80;;;1.80;99.90;;;;;;5083763;28;20386;-64
2024/01/07 12:20:54;;;;;;;3.22;0.80;;;1.90;99.90;;;;;;5079277;28;20053;-64
2024/01/07 12:23:19;;;;;;;2.13;1.25;;;1.80;99.90;;;;;;5082180;28;20128;-65
2024/01/07 12:26:07;;;;;;;2.28;0.80;;;1.80;99.90;;;;;;5083006;28;20127;-64
2024/01/07 12:28:33;;;;;;;1.50;0.70;;;1.80;99.90;;;;;;5086858;28;20114;-64
2024/01/07 12:31:01;;;;;;;2.25;0.95;;;1.60;99.90;;;;;;5083577;28;20043;-64
2024/01/07 12:33:28;;;;;;;1.75;0.88;;;1.50;99.90;;;;;;5090335;28;20517;-64
2024/01/07 12:35:55;;;;;;;1.95;1.00;;;1.30;99.90;;;;;;5084609;28;20465;-64
2024/01/07 12:38:24;;;;;;;1.05;0.80;;;1.40;99.90;;;;;;5086554;28;20068;-64
2024/01/07 12:40:51;;;;;;;2.30;1.10;;;1.30;99.90;;;;;;5085570;28;20131;-64
2024/01/07 12:43:16;;;;;;;3.22;0.90;;;1.30;99.90;;;;;;5083783;28;20043;-64
2024/01/07 12:45:42;;;;;;;2.70;1.33;;;1.30;99.90;;;;;;5083276;28;20059;-64
2024/01/07 12:48:08;;;;;;;3.17;1.13;;;1.20;99.90;;;;;;5082845;28;20036;-64